createdAt,value
2019-05-12T00:01:38.996Z,1.57
2019-05-12T00:04:09.154Z,1.50
2019-05-12T00:06:39.296Z,1.95
2019-05-12T00:09:09.369Z,1.35
2019-05-12T00:11:39.512Z,1.95
2019-05-12T00:14:12.702Z,1.50
2019-05-12T00:16:43.243Z,1.40
2019-05-12T00:19:13.322Z,1.85
2019-05-12T00:21:43.408Z,1.25
2019-05-12T00:24:22.685Z,1.70
2019-05-12T00:26:54.420Z,1.80
2019-05-12T00:29:24.480Z,1.47
2019-05-12T00:32:00.242Z,1.42
2019-05-12T00:34:36.020Z,1.82
2019-05-12T00:37:08.332Z,1.60
2019-05-12T00:39:38.540Z,1.80
2019-05-12T00:42:12.708Z,1.70
2019-05-12T00:44:42.801Z,1.55
2019-05-12T00:47:12.889Z,1.62
2019-05-12T00:49:48.587Z,1.50
2019-05-12T00:52:18.802Z,2.00
2019-05-12T00:54:48.980Z,1.75
2019-05-12T00:57:21.008Z,1.67
2019-05-12T00:59:52.993Z,1.98
2019-05-12T01:02:23.124Z,1.80
2019-05-12T01:04:54.086Z,2.15
2019-05-12T01:07:24.156Z,1.75
2019-05-12T01:09:54.228Z,1.80
2019-05-12T01:12:24.294Z,2.10
2019-05-12T01:15:01.348Z,1.60
2019-05-12T01:17:32.388Z,1.85
2019-05-12T01:20:04.819Z,1.90
2019-05-12T01:22:42.876Z,1.85
2019-05-12T01:25:15.016Z,1.82
2019-05-12T01:27:45.076Z,2.22
2019-05-12T01:30:17.919Z,2.55
2019-05-12T01:32:48.997Z,2.00
2019-05-12T01:35:19.072Z,2.40
2019-05-12T01:37:49.164Z,2.20
2019-05-12T01:40:19.247Z,2.52
2019-05-12T01:42:49.313Z,2.33
2019-05-12T01:45:29.073Z,2.37
2019-05-12T01:47:59.496Z,2.22
2019-05-12T01:50:35.384Z,2.10
2019-05-12T01:53:11.156Z,2.22
2019-05-12T01:55:41.237Z,1.87
2019-05-12T01:58:12.808Z,2.58
2019-05-12T02:00:43.997Z,2.00
2019-05-12T02:03:14.076Z,2.10
2019-05-12T02:05:45.785Z,2.47
2019-05-12T02:08:20.168Z,2.92
2019-05-12T02:10:51.880Z,3.52
2019-05-12T02:13:22.318Z,2.62
2019-05-12T02:15:54.309Z,2.80
2019-05-12T02:18:24.408Z,3.42
2019-05-12T02:20:57.650Z,3.10
2019-05-12T02:23:28.149Z,4.75
2019-05-12T02:25:59.094Z,3.05
2019-05-12T02:28:30.160Z,2.80
2019-05-12T02:31:01.124Z,3.60
2019-05-12T02:33:31.214Z,3.50
2019-05-12T02:36:04.458Z,3.40
2019-05-12T02:38:34.056Z,3.20
2019-05-12T02:41:17.214Z,2.90
2019-05-12T02:43:47.331Z,3.42
2019-05-12T02:46:18.489Z,3.25
2019-05-12T02:49:00.786Z,3.10
2019-05-12T02:51:40.085Z,3.30
2019-05-12T02:54:14.261Z,3.50
2019-05-12T02:56:45.229Z,4.12
2019-05-12T02:59:18.894Z,4.03
2019-05-12T03:01:54.834Z,4.58
2019-05-12T03:04:27.089Z,4.10
2019-05-12T03:07:01.872Z,4.95
2019-05-12T03:09:35.245Z,5.10
2019-05-12T03:12:08.210Z,5.45
2019-05-12T03:14:40.797Z,4.95
2019-05-12T03:17:10.938Z,5.37
2019-05-12T03:19:41.060Z,5.00
2019-05-12T03:22:13.924Z,5.45
2019-05-12T03:24:44.868Z,5.50
2019-05-12T03:27:17.810Z,5.15
2019-05-12T03:29:47.086Z,5.05
2019-05-12T03:32:18.059Z,5.58
2019-05-12T03:34:48.410Z,4.20
2019-05-12T03:37:30.615Z,5.58
2019-05-12T03:39:55.276Z,4.78
2019-05-12T03:42:25.487Z,3.98
2019-05-12T03:44:56.519Z,4.37
2019-05-12T03:47:29.594Z,3.90
2019-05-12T03:50:14.551Z,4.55
2019-05-12T03:52:46.401Z,4.25
2019-05-12T03:55:30.774Z,3.92
2019-05-12T03:57:50.149Z,3.90
2019-05-12T04:00:20.553Z,3.87
2019-05-12T04:02:56.659Z,3.62
2019-05-12T04:05:26.752Z,3.80
2019-05-12T04:07:57.706Z,3.67
2019-05-12T04:10:28.709Z,4.28
2019-05-12T04:12:59.781Z,3.95
2019-05-12T04:15:34.494Z,3.10
2019-05-12T04:18:05.610Z,3.37
2019-05-12T04:20:36.184Z,3.35
2019-05-12T04:23:07.162Z,3.10
2019-05-12T04:25:51.092Z,3.20
2019-05-12T04:28:11.133Z,3.25
2019-05-12T04:30:44.333Z,3.12
2019-05-12T04:33:15.559Z,3.17
2019-05-12T04:35:55.394Z,2.60
2019-05-12T04:38:31.462Z,2.50
2019-05-12T04:41:05.997Z,2.67
2019-05-12T04:43:37.542Z,3.15
2019-05-12T04:46:18.730Z,2.60
2019-05-12T04:48:54.575Z,2.75
2019-05-12T04:51:25.866Z,3.25
2019-05-12T04:53:57.144Z,3.20
2019-05-12T04:56:35.745Z,3.15
2019-05-12T04:59:10.613Z,4.10
2019-05-12T05:01:45.531Z,3.95
2019-05-12T05:04:15.956Z,3.20
2019-05-12T05:06:47.092Z,3.02
2019-05-12T05:09:18.148Z,3.02
2019-05-12T05:11:54.367Z,3.20
2019-05-12T05:14:34.346Z,3.00
2019-05-12T05:17:09.078Z,2.35
2019-05-12T05:19:44.950Z,2.35
2019-05-12T05:22:15.041Z,2.58
2019-05-12T05:24:45.182Z,2.45
2019-05-12T05:27:19.126Z,3.05
2019-05-12T05:29:55.317Z,3.30
2019-05-12T05:32:33.731Z,4.92
2019-05-12T05:35:07.196Z,3.90
2019-05-12T05:37:41.208Z,3.98
2019-05-12T05:40:09.717Z,4.03
2019-05-12T05:42:39.805Z,3.00
2019-05-12T05:45:18.594Z,3.10
2019-05-12T05:47:44.456Z,3.00
2019-05-12T05:50:18.534Z,2.65
2019-05-12T05:52:48.120Z,3.33
2019-05-12T05:55:20.290Z,3.80
2019-05-12T05:57:49.966Z,3.10
2019-05-12T06:00:26.114Z,3.30
2019-05-12T06:03:00.910Z,3.10
2019-05-12T06:05:31.147Z,3.00
2019-05-12T06:08:01.133Z,3.17
2019-05-12T06:10:44.009Z,3.27
2019-05-12T06:13:14.401Z,2.83
2019-05-12T06:15:53.765Z,2.95
2019-05-12T06:18:24.055Z,2.72
2019-05-12T06:20:55.037Z,2.60
2019-05-12T06:23:29.106Z,3.30
2019-05-12T06:25:56.937Z,2.72
2019-05-12T06:28:31.077Z,2.95
2019-05-12T06:30:59.801Z,2.52
2019-05-12T06:33:31.886Z,2.75
2019-05-12T06:36:07.461Z,3.83
2019-05-12T06:38:40.492Z,2.55
2019-05-12T06:41:20.318Z,2.42
2019-05-12T06:43:45.434Z,3.15
2019-05-12T06:46:20.906Z,2.52
2019-05-12T06:48:49.377Z,3.25
2019-05-12T06:51:27.185Z,3.00
2019-05-12T06:54:00.949Z,3.60
2019-05-12T06:56:30.961Z,3.50
2019-05-12T06:59:09.905Z,3.50
2019-05-12T07:01:41.108Z,3.25
2019-05-12T07:04:11.201Z,3.98
2019-05-12T07:06:41.282Z,3.42
2019-05-12T07:09:16.273Z,4.78
2019-05-12T07:11:52.909Z,4.05
2019-05-12T07:14:22.302Z,4.62
2019-05-12T07:17:07.334Z,4.03
2019-05-12T07:19:37.487Z,5.08
2019-05-12T07:22:18.062Z,4.78
2019-05-12T07:24:50.221Z,4.65
2019-05-12T07:27:15.085Z,5.03
2019-05-12T07:29:45.723Z,5.22
2019-05-12T07:32:24.047Z,4.55
2019-05-12T07:34:53.885Z,4.20
2019-05-12T07:37:29.891Z,4.80
2019-05-12T07:40:06.718Z,3.90
2019-05-12T07:42:39.570Z,4.35
2019-05-12T07:45:11.337Z,4.47
2019-05-12T07:47:44.818Z,4.12
2019-05-12T07:50:16.267Z,3.70
2019-05-12T07:52:46.793Z,4.17
2019-05-12T07:55:17.005Z,5.12
2019-05-12T07:57:55.458Z,3.98
2019-05-12T08:00:25.221Z,4.53
2019-05-12T08:02:57.177Z,4.05
2019-05-12T08:05:33.762Z,4.17
2019-05-12T08:08:19.105Z,4.95
2019-05-12T08:10:51.379Z,4.22
2019-05-12T08:13:20.969Z,3.87
2019-05-12T08:18:30.493Z,3.95
2019-05-12T08:21:00.112Z,3.80
2019-05-12T08:23:33.848Z,4.03
2019-05-12T08:26:12.554Z,3.85
2019-05-12T08:28:40.478Z,3.60
2019-05-12T08:31:08.706Z,3.70
2019-05-12T08:33:38.841Z,3.52
2019-05-12T08:36:11.680Z,4.70
2019-05-12T08:38:40.972Z,3.85
2019-05-12T08:41:11.082Z,4.47
2019-05-12T08:43:47.069Z,4.28
2019-05-12T08:46:17.963Z,4.10
2019-05-12T08:48:51.593Z,4.45
2019-05-12T08:51:21.258Z,4.35
2019-05-12T08:54:02.468Z,5.55
2019-05-12T08:56:27.586Z,4.42
2019-05-12T08:59:00.089Z,4.60
2019-05-12T09:01:31.499Z,4.75
2019-05-12T09:04:17.354Z,4.58
2019-05-12T09:06:43.911Z,4.35
2019-05-12T09:09:20.559Z,4.55
2019-05-12T09:12:07.351Z,4.53
2019-05-12T09:14:50.581Z,4.80
2019-05-12T09:17:23.234Z,3.90
2019-05-12T09:20:09.352Z,4.45
2019-05-12T09:23:00.667Z,3.65
2019-05-12T09:25:30.861Z,4.15
2019-05-12T09:28:18.278Z,4.10
2019-05-12T09:30:56.891Z,3.37
2019-05-12T09:33:32.467Z,4.08
2019-05-12T09:36:05.277Z,3.95
2019-05-12T09:38:35.945Z,3.70
2019-05-12T09:41:09.121Z,3.57
2019-05-12T09:43:48.369Z,3.33
2019-05-12T09:46:33.079Z,4.07
2019-05-12T09:49:04.266Z,4.30
2019-05-12T09:51:45.236Z,4.60
2019-05-12T09:54:18.722Z,4.17
2019-05-12T09:56:59.377Z,4.13
2019-05-12T09:59:33.995Z,4.12
2019-05-12T10:02:04.201Z,4.20
2019-05-12T10:04:36.265Z,4.08
2019-05-12T10:07:06.506Z,4.60
2019-05-12T10:09:36.785Z,4.12
2019-05-12T10:12:09.672Z,4.12
2019-05-12T10:14:45.666Z,4.97
2019-05-12T10:17:20.316Z,4.87
2019-05-12T10:19:56.205Z,3.47
2019-05-12T10:22:30.009Z,4.23
2019-05-12T10:24:58.740Z,4.47
2019-05-12T10:27:34.576Z,3.80
2019-05-12T10:30:16.827Z,4.07
2019-05-12T10:33:03.850Z,4.37
2019-05-12T10:35:38.223Z,4.23
2019-05-12T10:38:13.896Z,4.17
2019-05-12T10:40:48.826Z,3.80
2019-05-12T10:43:25.855Z,3.87
2019-05-12T10:46:04.183Z,4.40
2019-05-12T10:48:44.313Z,3.90
2019-05-12T10:51:18.645Z,4.47
2019-05-12T10:54:00.182Z,4.43
2019-05-12T10:56:38.083Z,3.70
2019-05-12T10:59:09.013Z,3.90
2019-05-12T11:01:47.246Z,4.03
2019-05-12T11:04:17.183Z,3.17
2019-05-12T11:06:55.351Z,3.13
2019-05-12T11:09:34.457Z,3.20
2019-05-12T11:12:04.708Z,2.90
2019-05-12T11:14:38.835Z,3.40
2019-05-12T11:17:13.627Z,2.70
2019-05-12T11:19:47.113Z,3.57
2019-05-12T11:22:19.469Z,3.37
2019-05-12T11:24:53.554Z,3.40
2019-05-12T11:27:24.758Z,2.60
2019-05-12T11:29:57.319Z,3.17
2019-05-12T11:32:28.985Z,2.80
2019-05-12T11:35:04.106Z,3.20
2019-05-12T11:37:38.245Z,3.07
2019-05-12T11:40:13.169Z,2.97
2019-05-12T11:42:54.575Z,2.90
2019-05-12T11:45:20.292Z,3.60
2019-05-12T11:48:05.169Z,2.67
2019-05-12T11:50:51.232Z,3.10
2019-05-12T11:53:30.372Z,3.37
2019-05-12T11:55:55.490Z,3.20
2019-05-12T11:58:30.740Z,2.80
2019-05-12T12:01:08.236Z,2.90
2019-05-12T12:03:59.905Z,3.30
2019-05-12T12:06:33.236Z,3.43
2019-05-12T12:09:18.942Z,3.20
2019-05-12T12:11:56.671Z,2.77
2019-05-12T12:14:40.225Z,2.50
2019-05-12T12:17:13.693Z,2.70
2019-05-12T12:19:48.828Z,2.83
2019-05-12T12:22:26.440Z,2.40
2019-05-12T12:25:03.171Z,2.53
2019-05-12T12:27:37.239Z,2.83
2019-05-12T12:30:18.700Z,2.20
2019-05-12T12:32:50.320Z,2.47
2019-05-12T12:35:34.875Z,2.60
2019-05-12T12:38:10.611Z,2.30
2019-05-12T12:40:45.535Z,2.23
2019-05-12T12:43:19.064Z,2.40
2019-05-12T12:45:58.587Z,2.50
2019-05-12T12:48:36.053Z,2.40
2019-05-12T12:51:34.112Z,1.90
2019-05-12T12:54:10.531Z,1.63
2019-05-12T12:56:46.126Z,1.80
2019-05-12T12:59:21.047Z,1.70
2019-05-12T13:01:53.994Z,2.03
2019-05-12T13:04:39.489Z,1.80
2019-05-12T13:07:24.157Z,1.90
2019-05-12T13:10:04.702Z,2.47
2019-05-12T13:12:56.628Z,2.30
2019-05-12T13:15:29.166Z,2.80
2019-05-12T13:18:24.745Z,2.27
2019-05-12T13:21:03.654Z,2.47
2019-05-12T13:23:41.109Z,2.10
2019-05-12T13:26:15.554Z,1.60
2019-05-12T13:28:56.803Z,3.43
2019-05-12T13:31:50.570Z,1.33
2019-05-12T13:34:28.763Z,1.60
2019-05-12T13:37:04.201Z,1.60
2019-05-12T13:39:54.682Z,1.50
2019-05-12T13:42:19.161Z,1.90
2019-05-12T13:44:59.952Z,1.60
2019-05-12T13:47:53.500Z,1.77
2019-05-12T13:50:27.798Z,1.37
2019-05-12T13:53:08.577Z,1.70
2019-05-12T13:55:47.492Z,1.93
2019-05-12T13:58:34.839Z,1.77
2019-05-12T14:01:24.884Z,1.60
2019-05-12T14:04:00.419Z,1.80
2019-05-12T14:06:37.791Z,1.80
2019-05-12T14:09:17.151Z,1.60
2019-05-12T14:12:17.539Z,1.83
2019-05-12T14:14:54.908Z,2.07
2019-05-12T14:17:30.978Z,1.30
2019-05-12T14:20:25.245Z,1.00
2019-05-12T14:23:01.051Z,1.70
2019-05-12T14:25:33.033Z,1.50
2019-05-12T14:28:09.381Z,1.23
2019-05-12T14:30:41.274Z,1.30
2019-05-12T14:33:11.514Z,1.37
2019-05-12T14:35:45.394Z,1.60
2019-05-12T14:38:14.247Z,1.20
2019-05-12T14:40:53.639Z,1.50
2019-05-12T14:43:24.875Z,1.40
2019-05-12T14:45:54.954Z,1.63
2019-05-12T14:48:26.038Z,1.10
2019-05-12T14:50:57.062Z,1.27
2019-05-12T14:53:27.146Z,1.37
2019-05-12T14:55:57.242Z,1.20
2019-05-12T14:58:27.567Z,0.90
2019-05-12T15:00:58.224Z,1.53
2019-05-12T15:03:34.410Z,1.47
2019-05-12T15:06:07.664Z,0.97
2019-05-12T15:08:43.633Z,1.37
2019-05-12T15:11:13.790Z,1.10
2019-05-12T15:13:43.869Z,1.10
2019-05-12T15:16:13.952Z,1.17
2019-05-12T15:18:46.818Z,1.43
2019-05-12T15:21:27.510Z,0.93
2019-05-12T15:24:00.493Z,1.37
2019-05-12T15:26:30.588Z,1.10
2019-05-12T15:29:13.645Z,1.30
2019-05-12T15:31:52.770Z,1.07
2019-05-12T15:34:14.307Z,1.00
2019-05-12T15:36:52.159Z,1.23
2019-05-12T15:39:38.082Z,1.33
2019-05-12T15:42:08.162Z,1.53
2019-05-12T15:44:38.242Z,0.90
2019-05-12T15:47:09.221Z,1.43
2019-05-12T15:49:39.350Z,1.30
2019-05-12T15:52:15.110Z,1.20
2019-05-12T15:54:51.495Z,1.10
2019-05-12T15:57:29.160Z,1.20
2019-05-12T15:59:59.282Z,1.20
2019-05-12T16:02:29.366Z,1.27
2019-05-12T16:04:59.450Z,1.00
2019-05-12T16:07:34.566Z,1.50
2019-05-12T16:10:16.694Z,1.10
2019-05-12T16:12:53.683Z,1.10
2019-05-12T16:15:23.956Z,1.10
2019-05-12T16:17:59.411Z,1.90
2019-05-12T16:20:27.606Z,1.10
2019-05-12T16:23:03.908Z,1.23
2019-05-12T16:25:45.851Z,1.40
2019-05-12T16:28:23.135Z,1.80
2019-05-12T16:30:47.694Z,1.50
2019-05-12T16:33:23.843Z,1.33
2019-05-12T16:36:04.924Z,1.30
2019-05-12T16:38:31.643Z,1.17
2019-05-12T16:41:03.761Z,1.30
2019-05-12T16:43:35.085Z,1.07
2019-05-12T16:46:05.450Z,1.20
2019-05-12T16:48:48.220Z,1.07
2019-05-12T16:51:18.502Z,1.50
2019-05-12T16:53:48.602Z,1.30
2019-05-12T16:56:20.088Z,1.30
2019-05-12T16:58:50.470Z,1.30
2019-05-12T17:01:44.614Z,1.37
2019-05-12T17:04:17.670Z,1.10
2019-05-12T17:06:48.642Z,1.30
2019-05-12T17:09:18.741Z,1.40
2019-05-12T17:11:52.569Z,1.30
2019-05-12T17:14:20.614Z,1.30
2019-05-12T17:16:50.722Z,1.00
2019-05-12T17:19:23.465Z,1.40
2019-05-12T17:21:57.697Z,1.40
2019-05-12T17:24:27.464Z,1.23
2019-05-12T17:26:57.550Z,1.10
2019-05-12T17:29:28.635Z,1.23
2019-05-12T17:31:59.638Z,1.10
2019-05-12T17:34:29.722Z,1.10
2019-05-12T17:37:00.504Z,1.13
2019-05-12T17:39:37.408Z,1.33
2019-05-12T17:42:05.595Z,1.10
2019-05-12T17:44:43.571Z,1.10
2019-05-12T17:47:21.293Z,1.20
2019-05-12T17:49:45.571Z,1.30
2019-05-12T17:52:18.324Z,1.37
2019-05-12T17:54:49.391Z,1.47
2019-05-12T17:57:20.191Z,1.30
2019-05-12T17:59:50.207Z,1.67
2019-05-12T18:02:29.358Z,1.70
2019-05-12T18:05:01.139Z,1.27
2019-05-12T18:07:31.219Z,1.70
2019-05-12T18:10:10.666Z,2.13
2019-05-12T18:12:53.477Z,1.40
2019-05-12T18:15:33.597Z,2.00
2019-05-12T18:18:01.211Z,1.57
2019-05-12T18:20:39.519Z,1.80
2019-05-12T18:23:06.142Z,1.80
2019-05-12T18:25:37.126Z,1.47
2019-05-12T18:28:07.223Z,1.30
2019-05-12T18:30:48.270Z,1.67
2019-05-12T18:33:32.513Z,1.50
2019-05-12T18:35:51.162Z,1.50
2019-05-12T18:38:26.524Z,1.40
2019-05-12T18:41:05.378Z,1.50
2019-05-12T18:43:37.421Z,1.50
2019-05-12T18:46:09.202Z,1.50
2019-05-12T18:48:39.488Z,1.27
2019-05-12T18:51:17.440Z,1.37
2019-05-12T18:53:47.674Z,2.80
2019-05-12T18:56:21.707Z,2.70
2019-05-12T18:58:50.826Z,1.97
2019-05-12T19:01:21.606Z,1.30
2019-05-12T19:03:51.682Z,1.73
2019-05-12T19:06:23.404Z,1.62
2019-05-12T19:08:54.039Z,1.40
2019-05-12T19:11:31.826Z,1.82
2019-05-12T19:13:58.886Z,1.30
2019-05-12T19:16:31.134Z,1.93
2019-05-12T19:19:04.344Z,2.10
2019-05-12T19:21:33.974Z,1.37
2019-05-12T19:24:08.626Z,2.02
2019-05-12T19:26:38.374Z,1.80
2019-05-12T19:29:08.619Z,1.60
2019-05-12T19:31:51.921Z,1.50
2019-05-12T19:34:22.485Z,1.27
2019-05-12T19:36:49.599Z,1.40
2019-05-12T19:39:19.802Z,1.80
2019-05-12T19:41:54.169Z,2.20
2019-05-12T19:44:26.432Z,2.58
2019-05-12T19:46:57.380Z,4.12
2019-05-12T19:49:43.424Z,4.62
2019-05-12T19:52:03.439Z,6.30
2019-05-12T19:54:36.846Z,3.75
2019-05-12T19:57:12.956Z,3.17
2019-05-12T19:59:44.053Z,3.85
2019-05-12T20:02:10.807Z,4.45
2019-05-12T20:04:43.155Z,3.92
2019-05-12T20:07:14.394Z,5.20
2019-05-12T20:09:46.162Z,5.00
2019-05-12T20:12:19.030Z,4.40
2019-05-12T20:14:51.076Z,3.70
2019-05-12T20:17:21.138Z,3.77
2019-05-12T20:19:53.814Z,4.05
2019-05-12T20:22:24.463Z,3.35
2019-05-12T20:24:54.593Z,3.17
2019-05-12T20:27:30.402Z,2.37
2019-05-12T20:30:18.723Z,1.95
2019-05-12T20:32:43.494Z,2.27
2019-05-12T20:35:14.743Z,2.30
2019-05-12T20:37:53.365Z,1.70
2019-05-12T20:40:18.975Z,1.52
2019-05-12T20:43:07.521Z,1.70
2019-05-12T20:45:33.156Z,1.80
2019-05-12T20:48:03.890Z,1.50
2019-05-12T20:50:38.721Z,1.35
2019-05-12T20:53:05.135Z,1.50
2019-05-12T20:55:41.437Z,2.02
2019-05-12T20:58:13.449Z,1.47
2019-05-12T21:00:50.446Z,2.15
2019-05-12T21:03:33.540Z,2.43
2019-05-12T21:06:04.798Z,1.62
2019-05-12T21:08:53.257Z,1.52
2019-05-12T21:11:17.042Z,1.62
2019-05-12T21:13:48.098Z,1.80
2019-05-12T21:16:25.268Z,1.50
2019-05-12T21:19:05.885Z,1.40
2019-05-12T21:21:34.086Z,1.57
2019-05-12T21:24:07.310Z,1.98
2019-05-12T21:26:39.396Z,3.42
2019-05-12T21:29:09.474Z,1.70
2019-05-12T21:31:44.549Z,1.65
2019-05-12T21:34:21.145Z,1.75
2019-05-12T21:36:48.219Z,1.72
2019-05-12T21:39:24.196Z,1.60
2019-05-12T21:42:04.059Z,1.75
2019-05-12T21:44:41.244Z,1.50
2019-05-12T21:47:10.592Z,2.90
2019-05-12T21:49:42.758Z,1.72
2019-05-12T21:52:13.622Z,1.55
2019-05-12T21:54:44.800Z,1.27
2019-05-12T21:57:19.161Z,1.30
2019-05-12T21:59:46.682Z,1.80
2019-05-12T22:02:19.778Z,1.72
2019-05-12T22:04:50.479Z,1.55
2019-05-12T22:07:23.838Z,1.52
2019-05-12T22:09:53.822Z,1.52
2019-05-12T22:12:28.539Z,1.60
2019-05-12T22:14:56.787Z,1.52
2019-05-12T22:17:37.027Z,1.60
2019-05-12T22:20:14.613Z,1.40
2019-05-12T22:22:42.119Z,1.75
2019-05-12T22:25:17.586Z,1.52
2019-05-12T22:27:47.799Z,1.70
2019-05-12T22:30:17.942Z,1.60
2019-05-12T22:32:48.055Z,1.60
2019-05-12T22:35:21.780Z,1.27
2019-05-12T22:37:53.408Z,1.70
2019-05-12T22:40:23.830Z,1.60
2019-05-12T22:42:59.329Z,1.80
2019-05-12T22:45:26.330Z,1.50
2019-05-12T22:47:59.083Z,1.90
2019-05-12T22:50:33.112Z,1.90
2019-05-12T22:53:04.573Z,2.05
2019-05-12T22:55:36.030Z,2.20
2019-05-12T22:58:20.644Z,2.25
2019-05-12T23:00:51.100Z,1.80
2019-05-12T23:03:26.599Z,1.77
2019-05-12T23:06:04.034Z,2.12
2019-05-12T23:08:44.259Z,3.17
2019-05-12T23:11:14.495Z,1.90
2019-05-12T23:13:49.611Z,1.72
2019-05-12T23:16:26.134Z,2.00
2019-05-12T23:19:01.323Z,2.25
2019-05-12T23:21:30.979Z,1.85
2019-05-12T23:24:05.719Z,1.40
2019-05-12T23:26:41.869Z,1.55
2019-05-12T23:29:09.516Z,2.20
2019-05-12T23:31:39.601Z,1.98
2019-05-12T23:34:14.576Z,1.87
2019-05-12T23:36:50.336Z,1.62
2019-05-12T23:39:18.369Z,1.60
2019-05-12T23:41:49.379Z,1.60
2019-05-12T23:44:19.470Z,2.02
2019-05-12T23:46:50.436Z,1.45
2019-05-12T23:49:20.511Z,1.87
2019-05-12T23:51:50.599Z,2.12
2019-05-12T23:54:20.694Z,1.90
2019-05-12T23:56:50.779Z,1.90
2019-05-12T23:59:20.855Z,1.70
